createdAt,value
2023-03-04T00:04:19.006Z,964.51
2023-03-04T00:05:18.970Z,964.53
2023-03-04T00:06:18.856Z,964.56
2023-03-04T00:07:18.861Z,964.51
2023-03-04T00:08:18.996Z,964.56
2023-03-04T00:09:19.132Z,964.54
2023-03-04T00:10:18.850Z,964.51
2023-03-04T00:11:18.870Z,964.55
2023-03-04T00:12:18.856Z,964.53
2023-03-04T00:13:18.850Z,964.52
2023-03-04T00:14:18.941Z,964.55
2023-03-04T00:15:18.871Z,964.54
2023-03-04T00:16:18.890Z,964.55
2023-03-04T00:17:19.034Z,964.54
2023-03-04T00:18:19.002Z,964.6
2023-03-04T00:19:18.959Z,964.61
2023-03-04T00:20:19.121Z,964.58
2023-03-04T00:21:18.912Z,964.63
2023-03-04T00:22:18.883Z,964.6
2023-03-04T00:23:19.081Z,964.62
2023-03-04T00:25:19.029Z,964.61
2023-03-04T00:26:18.911Z,964.58
2023-03-04T00:27:19.012Z,964.56
2023-03-04T00:28:18.979Z,964.57
2023-03-04T00:29:18.894Z,964.56
2023-03-04T00:30:18.999Z,964.57
2023-03-04T00:31:18.955Z,964.58
2023-03-04T00:32:18.934Z,964.57
2023-03-04T00:33:18.895Z,964.58
2023-03-04T00:34:18.924Z,964.56
2023-03-04T00:35:18.938Z,964.53
2023-03-04T00:36:18.924Z,964.59
2023-03-04T00:38:19.012Z,964.6
2023-03-04T00:39:19.044Z,964.57
2023-03-04T00:41:19.114Z,964.56
2023-03-04T00:44:19.005Z,964.53
2023-03-04T00:45:19.006Z,964.54
2023-03-04T00:46:19.042Z,964.57
2023-03-04T00:47:18.980Z,964.6
2023-03-04T00:48:18.944Z,964.59
2023-03-04T00:49:18.932Z,964.58
2023-03-04T00:51:19.104Z,964.63
2023-03-04T00:52:18.951Z,964.56
2023-03-04T00:53:18.943Z,964.58
2023-03-04T00:55:19.161Z,964.54
2023-03-04T00:56:19.093Z,964.53
2023-03-04T00:57:19.028Z,964.59
2023-03-04T00:58:18.982Z,964.52
2023-03-04T00:59:18.973Z,964.57
2023-03-04T01:00:18.958Z,964.58
2023-03-04T01:01:19.202Z,964.52
2023-03-04T01:02:19.028Z,964.53
2023-03-04T01:03:18.981Z,964.55
2023-03-04T01:04:19.020Z,964.53
2023-03-04T01:05:19.094Z,964.52
2023-03-04T01:06:18.987Z,964.49
2023-03-04T01:07:18.977Z,964.52
2023-03-04T01:08:18.972Z,964.53
2023-03-04T01:09:19.127Z,964.51
2023-03-04T01:10:19.008Z,964.55
2023-03-04T01:11:19.084Z,964.52
2023-03-04T01:12:19.024Z,964.49
2023-03-04T01:13:19.046Z,964.48
2023-03-04T01:14:19.064Z,964.5
2023-03-04T01:15:19.017Z,964.48
2023-03-04T01:16:19.054Z,964.46
2023-03-04T01:17:18.994Z,964.47
2023-03-04T01:18:18.997Z,964.46
2023-03-04T01:19:18.997Z,964.44
2023-03-04T01:20:19.010Z,964.46
2023-03-04T01:21:19.025Z,964.43
2023-03-04T01:22:19.036Z,964.45
2023-03-04T01:23:19.044Z,964.43
2023-03-04T01:24:19.022Z,964.42
2023-03-04T01:27:19.160Z,964.43
2023-03-04T01:28:19.178Z,964.44
2023-03-04T01:30:19.132Z,964.43
2023-03-04T01:31:19.039Z,964.4
2023-03-04T01:33:19.296Z,964.44
2023-03-04T01:34:19.171Z,964.43
2023-03-04T01:35:19.148Z,964.41
2023-03-04T01:37:19.245Z,964.45
2023-03-04T01:39:19.115Z,964.47
2023-03-04T01:41:19.207Z,964.46
2023-03-04T01:42:19.092Z,964.47
2023-03-04T01:43:19.058Z,964.48
2023-03-04T01:45:19.100Z,964.44
2023-03-04T01:46:19.215Z,964.47
2023-03-04T01:47:19.101Z,964.48
2023-03-04T01:48:19.072Z,964.42
2023-03-04T01:49:19.204Z,964.45
2023-03-04T01:50:19.073Z,964.49
2023-03-04T01:51:19.085Z,964.47
2023-03-04T01:52:19.185Z,964.49
2023-03-04T01:53:19.088Z,964.48
2023-03-04T01:54:19.210Z,964.49
2023-03-04T01:55:19.091Z,964.46
2023-03-04T01:56:19.115Z,964.43
2023-03-04T01:57:19.101Z,964.39
2023-03-04T01:58:19.101Z,964.43
2023-03-04T01:59:19.244Z,964.46
2023-03-04T02:00:19.253Z,964.44
2023-03-04T02:01:19.117Z,964.43
2023-03-04T02:02:19.096Z,964.44
2023-03-04T02:03:19.128Z,964.42
2023-03-04T02:04:19.346Z,964.41
2023-03-04T02:05:19.130Z,964.42
2023-03-04T02:06:19.140Z,964.4
2023-03-04T02:07:19.115Z,964.38
2023-03-04T02:09:19.201Z,964.4
2023-03-04T02:10:19.141Z,964.35
2023-03-04T02:11:19.129Z,964.38
2023-03-04T02:12:19.141Z,964.33
2023-03-04T02:13:19.141Z,964.32
2023-03-04T02:14:19.143Z,964.31
2023-03-04T02:15:19.325Z,964.34
2023-03-04T02:16:19.201Z,964.32
2023-03-04T02:18:19.413Z,964.33
2023-03-04T02:19:19.164Z,964.26
2023-03-04T02:20:19.154Z,964.31
2023-03-04T02:21:19.168Z,964.3
2023-03-04T02:22:19.172Z,964.29
2023-03-04T02:23:19.160Z,964.31
2023-03-04T02:24:19.159Z,964.33
2023-03-04T02:25:19.238Z,964.24
2023-03-04T02:26:19.220Z,964.26
2023-03-04T02:27:21.687Z,964.29
2023-03-04T02:28:19.165Z,964.3
2023-03-04T02:30:19.274Z,964.28
2023-03-04T02:31:19.211Z,964.27
2023-03-04T02:34:19.316Z,964.29
2023-03-04T02:35:19.249Z,964.25
2023-03-04T02:36:19.203Z,964.29
2023-03-04T02:37:19.191Z,964.24
2023-03-04T02:38:19.345Z,964.23
2023-03-04T02:40:19.281Z,964.18
2023-03-04T02:42:19.366Z,964.2
2023-03-04T02:43:19.220Z,964.18
2023-03-04T02:44:19.212Z,964.22
2023-03-04T02:46:19.370Z,964.21
2023-03-04T02:47:19.207Z,964.23
2023-03-04T02:48:19.234Z,964.25
2023-03-04T02:49:19.220Z,964.23
2023-03-04T02:50:19.222Z,964.22
2023-03-04T02:51:19.233Z,964.21
2023-03-04T02:52:19.240Z,964.23
2023-03-04T02:53:19.238Z,964.2
2023-03-04T02:54:19.235Z,964.22
2023-03-04T02:55:19.392Z,964.24
2023-03-04T02:56:19.239Z,964.23
2023-03-04T02:58:19.326Z,964.19
2023-03-04T02:59:19.264Z,964.28
2023-03-04T03:00:19.309Z,964.24
2023-03-04T03:01:19.250Z,964.26
2023-03-04T03:02:19.262Z,964.22
2023-03-04T03:03:19.254Z,964.26
2023-03-04T03:04:19.253Z,964.28
2023-03-04T03:05:19.349Z,964.23
2023-03-04T03:06:19.458Z,964.29
2023-03-04T03:07:19.268Z,964.22
2023-03-04T03:08:19.252Z,964.25
2023-03-04T03:09:19.281Z,964.23
2023-03-04T03:10:19.403Z,964.22
2023-03-04T03:12:19.461Z,964.23
2023-03-04T03:14:19.490Z,964.22
2023-03-04T03:15:19.305Z,964.24
2023-03-04T03:16:19.314Z,964.23
2023-03-04T03:17:19.298Z,964.21
2023-03-04T03:18:19.323Z,964.22
2023-03-04T03:20:19.412Z,964.19
2023-03-04T03:21:19.286Z,964.17
2023-03-04T03:22:19.305Z,964.19
2023-03-04T03:24:19.394Z,964.15
2023-03-04T03:26:19.393Z,964.18
2023-03-04T03:27:19.364Z,964.17
2023-03-04T03:28:19.316Z,964.13
2023-03-04T03:29:19.331Z,964.11
2023-03-04T03:30:19.321Z,964.16
2023-03-04T03:31:19.313Z,964.13
2023-03-04T03:32:19.424Z,964.12
2023-03-04T03:34:19.414Z,964.11
2023-03-04T03:35:19.475Z,964.16
2023-03-04T03:36:19.357Z,964.13
2023-03-04T03:38:19.446Z,964.09
2023-03-04T03:39:19.346Z,964.1
2023-03-04T03:42:19.448Z,964.08
2023-03-04T03:43:19.372Z,964.09
2023-03-04T03:44:19.343Z,964.1
2023-03-04T03:46:19.453Z,964.04
2023-03-04T03:47:19.356Z,964.1
2023-03-04T03:48:19.361Z,964.11
2023-03-04T03:49:19.428Z,964.1
2023-03-04T03:50:19.364Z,964.12
2023-03-04T03:52:19.475Z,964.16
2023-03-04T03:53:20.672Z,964.18
2023-03-04T03:54:19.470Z,964.14
2023-03-04T03:55:19.441Z,964.15
2023-03-04T03:57:19.422Z,964.14
2023-03-04T03:58:19.439Z,964.09
2023-03-04T03:59:19.373Z,964.11
2023-03-04T04:00:19.498Z,964.07
2023-03-04T04:01:19.372Z,964.1
2023-03-04T04:03:19.458Z,964.11
2023-03-04T04:04:19.409Z,964.15
2023-03-04T04:05:19.408Z,964.13
2023-03-04T04:06:19.398Z,964.17
2023-03-04T04:07:19.410Z,964.18
2023-03-04T04:08:19.415Z,964.22
2023-03-04T04:09:19.410Z,964.19
2023-03-04T04:10:20.654Z,964.17
2023-03-04T04:11:19.434Z,964.18
2023-03-04T04:12:19.402Z,964.14
2023-03-04T04:13:19.420Z,964.17
2023-03-04T04:14:19.460Z,964.16
2023-03-04T04:15:19.412Z,964.14
2023-03-04T04:16:19.457Z,964.15
2023-03-04T04:19:19.474Z,964.17
2023-03-04T04:20:19.437Z,964.2
2023-03-04T04:21:19.427Z,964.19
2023-03-04T04:22:19.427Z,964.2
2023-03-04T04:23:19.428Z,964.19
2023-03-04T04:24:19.429Z,964.22
2023-03-04T04:25:19.435Z,964.23
2023-03-04T04:26:19.443Z,964.18
2023-03-04T04:27:19.462Z,964.19
2023-03-04T04:28:19.457Z,964.2
2023-03-04T04:31:19.529Z,964.24
2023-03-04T04:32:19.577Z,964.22
2023-03-04T04:33:19.453Z,964.21
2023-03-04T04:34:19.467Z,964.22
2023-03-04T04:38:19.516Z,964.19
2023-03-04T04:39:19.483Z,964.22
2023-03-04T04:40:19.472Z,964.25
2023-03-04T04:41:19.490Z,964.29
2023-03-04T04:42:19.474Z,964.25
2023-03-04T04:43:19.476Z,964.26
2023-03-04T04:44:19.480Z,964.29
2023-03-04T04:46:19.664Z,964.3
2023-03-04T04:47:19.650Z,964.25
2023-03-04T04:48:19.497Z,964.29
2023-03-04T04:49:19.497Z,964.27
2023-03-04T04:51:19.640Z,964.26
2023-03-04T04:52:19.522Z,964.32
2023-03-04T04:53:19.593Z,964.3
2023-03-04T04:55:19.577Z,964.29
2023-03-04T04:56:19.539Z,964.31
2023-03-04T04:57:19.549Z,964.32
2023-03-04T04:58:19.530Z,964.34
2023-03-04T04:59:19.504Z,964.32
2023-03-04T05:00:19.521Z,964.33
2023-03-04T05:01:19.603Z,964.34
2023-03-04T05:02:19.528Z,964.36
2023-03-04T05:03:20.542Z,964.33
2023-03-04T05:04:19.646Z,964.34
2023-03-04T05:05:19.542Z,964.36
2023-03-04T05:06:19.535Z,964.31
2023-03-04T05:08:19.694Z,964.33
2023-03-04T05:09:19.557Z,964.31
2023-03-04T05:10:19.549Z,964.3
2023-03-04T05:13:19.645Z,964.29
2023-03-04T05:14:19.572Z,964.31
2023-03-04T05:16:19.668Z,964.33
2023-03-04T05:19:19.644Z,964.3
2023-03-04T05:20:19.615Z,964.32
2023-03-04T05:21:19.591Z,964.33
2023-03-04T05:26:19.688Z,964.35
2023-03-04T05:29:19.898Z,964.36
2023-03-04T05:32:19.766Z,964.39
2023-03-04T05:33:19.620Z,964.37
2023-03-04T05:34:19.605Z,964.38
2023-03-04T05:36:19.676Z,964.37
2023-03-04T05:37:19.635Z,964.39
2023-03-04T05:39:19.769Z,964.38
2023-03-04T05:40:19.666Z,964.41
2023-03-04T05:41:19.642Z,964.39
2023-03-04T05:42:19.625Z,964.41
2023-03-04T05:43:19.642Z,964.38
2023-03-04T05:44:19.631Z,964.43
2023-03-04T05:45:19.621Z,964.41
2023-03-04T05:46:19.664Z,964.43
2023-03-04T05:47:19.640Z,964.45
2023-03-04T05:48:19.631Z,964.44
2023-03-04T05:50:19.914Z,964.42
2023-03-04T05:51:19.703Z,964.43
2023-03-04T05:53:19.692Z,964.45
2023-03-04T05:54:19.666Z,964.47
2023-03-04T05:55:19.641Z,964.48
2023-03-04T05:56:19.665Z,964.43
2023-03-04T05:57:19.736Z,964.46
2023-03-04T05:58:19.669Z,964.47
2023-03-04T05:59:19.667Z,964.46
2023-03-04T06:00:19.663Z,964.45
2023-03-04T06:01:19.740Z,964.44
2023-03-04T06:02:19.677Z,964.43
2023-03-04T06:04:19.807Z,964.4
2023-03-04T06:07:19.765Z,964.42
2023-03-04T06:09:19.860Z,964.38
2023-03-04T06:10:19.686Z,964.43
2023-03-04T06:11:19.830Z,964.44
2023-03-04T06:12:19.757Z,964.46
2023-03-04T06:14:19.883Z,964.48
2023-03-04T06:15:19.717Z,964.47
2023-03-04T06:16:19.751Z,964.52
2023-03-04T06:18:19.767Z,964.53
2023-03-04T06:19:19.715Z,964.59
2023-03-04T06:20:19.747Z,964.54
2023-03-04T06:21:19.735Z,964.61
2023-03-04T06:22:19.726Z,964.59
2023-03-04T06:23:19.724Z,964.63
2023-03-04T06:25:19.768Z,964.6
2023-03-04T06:26:19.804Z,964.67
2023-03-04T06:27:19.777Z,964.68
2023-03-04T06:28:19.726Z,964.7
2023-03-04T06:29:19.722Z,964.71
2023-03-04T06:30:19.731Z,964.7
2023-03-04T06:31:19.741Z,964.71
2023-03-04T06:32:19.818Z,964.68
2023-03-04T06:33:19.725Z,964.71
2023-03-04T06:34:19.747Z,964.73
2023-03-04T06:36:19.840Z,964.69
2023-03-04T06:37:19.770Z,964.74
2023-03-04T06:38:19.779Z,964.73
2023-03-04T06:39:19.743Z,964.75
2023-03-04T06:40:19.768Z,964.74
2023-03-04T06:41:19.755Z,964.81
2023-03-04T06:42:19.763Z,964.8
2023-03-04T06:43:19.763Z,964.81
2023-03-04T06:44:19.800Z,964.82
2023-03-04T06:45:19.794Z,964.8
2023-03-04T06:46:19.814Z,964.83
2023-03-04T06:47:19.769Z,964.84
2023-03-04T06:48:19.914Z,964.88
2023-03-04T06:49:19.789Z,964.91
2023-03-04T06:50:19.773Z,964.92
2023-03-04T06:51:19.770Z,964.91
2023-03-04T06:52:19.791Z,964.92
2023-03-04T06:53:19.927Z,964.94
2023-03-04T06:54:19.826Z,964.95
2023-03-04T06:55:19.881Z,964.98
2023-03-04T06:56:19.823Z,964.93
2023-03-04T06:57:19.842Z,964.94
2023-03-04T06:58:19.843Z,964.98
2023-03-04T06:59:19.839Z,964.99
2023-03-04T07:00:19.839Z,964.97
2023-03-04T07:01:19.849Z,964.99
2023-03-04T07:02:19.911Z,964.98
2023-03-04T07:03:19.808Z,964.99
2023-03-04T07:04:19.850Z,965.05
2023-03-04T07:05:19.820Z,965.04
2023-03-04T07:08:21.696Z,965.08
2023-03-04T07:09:20.039Z,965.05
2023-03-04T07:10:19.827Z,965.09
2023-03-04T07:11:19.874Z,965.08
2023-03-04T07:13:19.943Z,965.12
2023-03-04T07:15:19.870Z,965.14
2023-03-04T07:16:19.929Z,965.1
2023-03-04T07:18:19.902Z,965.11
2023-03-04T07:21:19.935Z,965.14
2023-03-04T07:22:20.022Z,965.11
2023-03-04T07:23:19.866Z,965.12
2023-03-04T07:24:19.948Z,965.11
2023-03-04T07:25:19.937Z,965.14
2023-03-04T07:26:20.012Z,965.11
2023-03-04T07:27:19.855Z,965.15
2023-03-04T07:29:20.060Z,965.21
2023-03-04T07:30:19.871Z,965.19
2023-03-04T07:31:19.937Z,965.2
2023-03-04T07:32:19.980Z,965.18
2023-03-04T07:33:20.003Z,965.19
2023-03-04T07:34:19.886Z,965.18
2023-03-04T07:36:20.116Z,965.19
2023-03-04T07:37:19.896Z,965.25
2023-03-04T07:38:19.892Z,965.23
2023-03-04T07:39:19.973Z,965.2
2023-03-04T07:41:20.011Z,965.27
2023-03-04T07:43:20.038Z,965.25
2023-03-04T07:44:19.897Z,965.27
2023-03-04T07:45:19.913Z,965.32
2023-03-04T07:46:19.993Z,965.29
2023-03-04T07:47:19.923Z,965.3
2023-03-04T07:48:19.916Z,965.33
2023-03-04T07:49:19.913Z,965.34
2023-03-04T07:50:19.918Z,965.32
2023-03-04T07:51:20.012Z,965.34
2023-03-04T07:52:19.913Z,965.33
2023-03-04T07:53:19.926Z,965.35
2023-03-04T07:54:19.933Z,965.33
2023-03-04T07:55:19.937Z,965.35
2023-03-04T07:56:19.928Z,965.36
2023-03-04T07:57:20.037Z,965.35
2023-03-04T07:58:20.026Z,965.36
2023-03-04T08:00:19.986Z,965.38
2023-03-04T08:01:19.971Z,965.4
2023-03-04T08:03:21.261Z,965.43
2023-03-04T08:04:19.995Z,965.39
2023-03-04T08:05:19.994Z,965.41
2023-03-04T08:06:19.969Z,965.45
2023-03-04T08:07:19.957Z,965.42
2023-03-04T08:08:19.950Z,965.4
2023-03-04T08:09:20.011Z,965.43
2023-03-04T08:10:20.067Z,965.41
2023-03-04T08:11:20.047Z,965.43
2023-03-04T08:12:19.978Z,965.49
2023-03-04T08:15:20.037Z,965.46
2023-03-04T08:16:20.035Z,965.45
2023-03-04T08:18:20.069Z,965.4
2023-03-04T08:19:19.997Z,965.37
2023-03-04T08:20:20.057Z,965.38
2023-03-04T08:21:19.983Z,965.39
2023-03-04T08:23:20.014Z,965.39
2023-03-04T08:24:19.989Z,965.4
2023-03-04T08:25:20.119Z,965.35
2023-03-04T08:26:20.005Z,965.38
2023-03-04T08:27:20.014Z,965.4
2023-03-04T08:29:20.053Z,965.43
2023-03-04T08:30:20.059Z,965.39
2023-03-04T08:31:20.130Z,965.4
2023-03-04T08:33:20.118Z,965.42
2023-03-04T08:34:20.075Z,965.44
2023-03-04T08:35:20.055Z,965.38
2023-03-04T08:36:20.042Z,965.47
2023-03-04T08:37:20.023Z,965.46
2023-03-04T08:38:20.041Z,965.49
2023-03-04T08:39:20.121Z,965.51
2023-03-04T08:40:20.047Z,965.53
2023-03-04T08:41:20.080Z,965.5
2023-03-04T08:42:20.038Z,965.48
2023-03-04T08:43:20.113Z,965.5
2023-03-04T08:44:20.058Z,965.53
2023-03-04T08:45:20.046Z,965.5
2023-03-04T08:46:20.092Z,965.51
2023-03-04T08:47:20.042Z,965.5
2023-03-04T08:48:20.101Z,965.53
2023-03-04T08:50:22.267Z,965.48
2023-03-04T08:51:20.071Z,965.47
2023-03-04T08:52:20.142Z,965.41
2023-03-04T08:53:20.066Z,965.44
2023-03-04T08:54:20.071Z,965.35
2023-03-04T08:55:20.071Z,965.36
2023-03-04T08:57:20.120Z,965.37
2023-03-04T08:58:20.083Z,965.35
2023-03-04T08:59:20.080Z,965.38
2023-03-04T09:00:20.187Z,965.4
2023-03-04T09:01:20.109Z,965.39
2023-03-04T09:02:20.155Z,965.32
2023-03-04T09:03:20.317Z,965.31
2023-03-04T09:04:20.097Z,965.34
2023-03-04T09:05:20.148Z,965.31
2023-03-04T09:07:20.174Z,965.32
2023-03-04T09:08:20.111Z,965.31
2023-03-04T09:09:20.105Z,965.28
2023-03-04T09:10:20.129Z,965.31
2023-03-04T09:11:20.219Z,965.32
2023-03-04T09:12:20.111Z,965.33
2023-03-04T09:13:20.113Z,965.32
2023-03-04T09:14:20.128Z,965.28
2023-03-04T09:15:20.168Z,965.3
2023-03-04T09:16:20.178Z,965.29
2023-03-04T09:17:20.116Z,965.19
2023-03-04T09:18:20.127Z,965.2
2023-03-04T09:19:20.199Z,965.16
2023-03-04T09:20:20.133Z,965.14
2023-03-04T09:21:20.126Z,965.16
2023-03-04T09:22:20.137Z,965.14
2023-03-04T09:23:20.177Z,965.19
2023-03-04T09:24:20.150Z,965.15
2023-03-04T09:25:20.248Z,965.11
2023-03-04T09:26:20.153Z,965.16
2023-03-04T09:27:20.159Z,965.15
2023-03-04T09:28:20.407Z,965.11
2023-03-04T09:29:20.146Z,965.09
2023-03-04T09:30:20.168Z,965.08
2023-03-04T09:31:20.197Z,965.1
2023-03-04T09:32:20.219Z,965.11
2023-03-04T09:34:20.267Z,965.13
2023-03-04T09:35:20.239Z,965.09
2023-03-04T09:36:20.291Z,965.13
2023-03-04T09:37:20.171Z,965.16
2023-03-04T09:38:20.188Z,965.18
2023-03-04T09:39:20.195Z,965.16
2023-03-04T09:40:21.646Z,965.14
2023-03-04T09:42:20.305Z,965.12
2023-03-04T09:44:20.277Z,965.1
2023-03-04T09:45:20.205Z,965.12
2023-03-04T09:46:20.204Z,965.11
2023-03-04T09:47:20.193Z,965.1
2023-03-04T09:48:20.193Z,965.11
2023-03-04T09:49:20.205Z,965.14
2023-03-04T09:51:20.288Z,965.13
2023-03-04T09:52:20.222Z,965.07
2023-03-04T09:53:20.298Z,965.05
2023-03-04T09:54:20.221Z,965.01
2023-03-04T09:56:20.299Z,965.04
2023-03-04T09:57:20.339Z,965.03
2023-03-04T09:58:20.373Z,965
2023-03-04T09:59:20.243Z,964.96
2023-03-04T10:02:20.308Z,964.92
2023-03-04T10:04:20.303Z,965.03
2023-03-04T10:05:20.237Z,965.04
2023-03-04T10:07:20.339Z,965.02
2023-03-04T10:09:20.391Z,964.99
2023-03-04T10:10:20.264Z,965.01
2023-03-04T10:12:20.374Z,964.95
2023-03-04T10:13:20.360Z,964.89
2023-03-04T10:14:20.260Z,964.9
2023-03-04T10:15:20.261Z,964.89
2023-03-04T10:16:20.275Z,964.81
2023-03-04T10:17:20.264Z,964.82
2023-03-04T10:18:20.665Z,964.78
2023-03-04T10:19:20.282Z,964.79
2023-03-04T10:21:20.380Z,964.8
2023-03-04T10:22:20.267Z,964.73
2023-03-04T10:23:20.270Z,964.75
2023-03-04T10:24:20.314Z,964.76
2023-03-04T10:25:20.287Z,964.79
2023-03-04T10:27:20.312Z,964.79
2023-03-04T10:28:20.407Z,964.8
2023-03-04T10:29:20.325Z,964.81
2023-03-04T10:30:20.294Z,964.76
2023-03-04T10:32:20.369Z,964.83
2023-03-04T10:33:20.288Z,964.81
2023-03-04T10:34:20.294Z,964.84
2023-03-04T10:35:20.509Z,964.86
2023-03-04T10:36:20.303Z,964.89
2023-03-04T10:37:20.308Z,964.85
2023-03-04T10:38:20.357Z,964.82
2023-03-04T10:39:20.367Z,964.77
2023-03-04T10:40:20.335Z,964.8
2023-03-04T10:41:20.326Z,964.78
2023-03-04T10:42:20.382Z,964.77
2023-03-04T10:43:20.309Z,964.75
2023-03-04T10:45:20.398Z,964.68
2023-03-04T10:46:20.330Z,964.71
2023-03-04T10:47:20.342Z,964.67
2023-03-04T10:48:20.457Z,964.65
2023-03-04T10:49:20.341Z,964.6
2023-03-04T10:50:20.352Z,964.58
2023-03-04T10:51:20.385Z,964.57
2023-03-04T10:53:20.473Z,964.62
2023-03-04T10:54:20.335Z,964.58
2023-03-04T10:55:20.491Z,964.6
2023-03-04T10:56:20.350Z,964.61
2023-03-04T10:57:20.341Z,964.55
2023-03-04T10:58:20.342Z,964.58
2023-03-04T11:00:20.644Z,964.52
2023-03-04T11:01:20.451Z,964.55
2023-03-04T11:02:20.465Z,964.54
2023-03-04T11:03:20.376Z,964.51
2023-03-04T11:04:20.362Z,964.49
2023-03-04T11:05:20.413Z,964.54
2023-03-04T11:07:20.388Z,964.52
2023-03-04T11:08:20.429Z,964.49
2023-03-04T11:09:20.479Z,964.44
2023-03-04T11:10:20.411Z,964.47
2023-03-04T11:11:20.411Z,964.45
2023-03-04T11:12:20.389Z,964.48
2023-03-04T11:14:20.452Z,964.46
2023-03-04T11:15:20.461Z,964.43
2023-03-04T11:16:20.426Z,964.47
2023-03-04T11:17:20.409Z,964.5
2023-03-04T11:18:20.391Z,964.51
2023-03-04T11:22:20.457Z,964.53
2023-03-04T11:23:20.413Z,964.51
2023-03-04T11:24:28.565Z,964.46
2023-03-04T11:25:20.581Z,964.5
2023-03-04T11:26:20.398Z,964.46
2023-03-04T11:27:20.452Z,964.43
2023-03-04T11:28:20.399Z,964.35
2023-03-04T11:30:20.482Z,964.38
2023-03-04T11:31:20.470Z,964.37
2023-03-04T11:32:20.687Z,964.34
2023-03-04T11:33:20.537Z,964.26
2023-03-04T11:35:20.516Z,964.27
2023-03-04T11:36:20.453Z,964.29
2023-03-04T11:37:20.471Z,964.28
2023-03-04T11:38:20.432Z,964.3
2023-03-04T11:39:20.447Z,964.26
2023-03-04T11:40:22.158Z,964.2
2023-03-04T11:41:20.640Z,964.14
2023-03-04T11:42:20.460Z,964.15
2023-03-04T11:43:20.468Z,964.14
2023-03-04T11:45:28.640Z,964.13
2023-03-04T11:46:20.526Z,964.06
2023-03-04T11:47:20.473Z,964.11
2023-03-04T11:48:20.577Z,964.1
2023-03-04T11:49:20.512Z,964.09
2023-03-04T11:50:20.489Z,964.07
2023-03-04T11:51:20.623Z,964.02
2023-03-04T11:52:20.502Z,963.99
2023-03-04T11:53:20.511Z,964.06
2023-03-04T11:54:20.600Z,964.05
2023-03-04T11:55:20.714Z,964.06
2023-03-04T11:56:20.526Z,964.09
2023-03-04T11:57:20.522Z,964.06
2023-03-04T11:59:20.642Z,964
2023-03-04T12:00:20.544Z,963.97
2023-03-04T12:01:20.591Z,963.96
2023-03-04T12:02:20.609Z,963.93
2023-03-04T12:03:20.729Z,963.94
2023-03-04T12:06:20.541Z,963.94
2023-03-04T12:07:20.708Z,963.98
2023-03-04T12:08:20.712Z,964
2023-03-04T12:09:20.552Z,964.02
2023-03-04T12:10:20.605Z,963.98
2023-03-04T12:11:20.542Z,964.02
2023-03-04T12:12:20.558Z,964.03
2023-03-04T12:13:20.543Z,963.94
2023-03-04T12:14:22.138Z,963.95
2023-03-04T12:16:20.689Z,963.92
2023-03-04T12:17:20.574Z,963.93
2023-03-04T12:18:20.600Z,963.9
2023-03-04T12:19:20.586Z,963.86
2023-03-04T12:21:20.697Z,963.83
2023-03-04T12:22:20.635Z,963.86
2023-03-04T12:23:20.581Z,963.84
2023-03-04T12:24:20.565Z,963.77
2023-03-04T12:25:20.563Z,963.76
2023-03-04T12:26:20.563Z,963.74
2023-03-04T12:27:20.588Z,963.71
2023-03-04T12:29:20.684Z,963.63
2023-03-04T12:32:20.695Z,963.57
2023-03-04T12:33:21.303Z,963.52
2023-03-04T12:34:20.646Z,963.54
2023-03-04T12:35:20.734Z,963.51
2023-03-04T12:37:20.674Z,963.44
2023-03-04T12:38:20.669Z,963.39
2023-03-04T12:39:20.603Z,963.37
2023-03-04T12:40:20.686Z,963.32
2023-03-04T12:42:20.876Z,963.34
2023-03-04T12:43:20.621Z,963.35
2023-03-04T12:44:20.721Z,963.32
2023-03-04T12:46:20.655Z,963.36
2023-03-04T12:47:20.637Z,963.4
2023-03-04T12:50:20.677Z,963.39
2023-03-04T12:51:20.699Z,963.4
2023-03-04T12:52:20.709Z,963.37
2023-03-04T12:53:20.655Z,963.38
2023-03-04T12:54:20.725Z,963.31
2023-03-04T12:55:20.695Z,963.32
2023-03-04T12:56:20.706Z,963.29
2023-03-04T12:57:20.656Z,963.2
2023-03-04T12:58:20.761Z,963.19
2023-03-04T12:59:20.660Z,963.2
2023-03-04T13:00:20.657Z,963.15
2023-03-04T13:01:20.653Z,963.09
2023-03-04T13:02:20.716Z,963
2023-03-04T13:03:20.855Z,963.02
2023-03-04T13:04:20.749Z,962.94
2023-03-04T13:05:20.690Z,962.93
2023-03-04T13:06:20.812Z,962.97
2023-03-04T13:07:20.787Z,962.92
2023-03-04T13:08:20.695Z,962.9
2023-03-04T13:09:20.744Z,962.88
2023-03-04T13:10:20.713Z,962.92
2023-03-04T13:11:20.688Z,962.94
2023-03-04T13:12:22.296Z,962.84
2023-03-04T13:13:21.128Z,962.87
2023-03-04T13:14:20.750Z,962.86
2023-03-04T13:15:20.739Z,962.88
2023-03-04T13:16:20.774Z,962.91
2023-03-04T13:17:20.761Z,962.9
2023-03-04T13:20:20.770Z,962.91
2023-03-04T13:21:20.695Z,962.88
2023-03-04T13:22:20.779Z,962.81
2023-03-04T13:23:20.716Z,962.84
2023-03-04T13:24:20.706Z,962.81
2023-03-04T13:25:20.721Z,962.8
2023-03-04T13:26:20.758Z,962.89
2023-03-04T13:27:20.708Z,962.92
2023-03-04T13:28:20.736Z,962.95
2023-03-04T13:29:20.720Z,962.86
2023-03-04T13:32:20.881Z,962.92
2023-03-04T13:33:20.841Z,962.94
2023-03-04T13:34:20.788Z,962.91
2023-03-04T13:36:20.820Z,962.86
2023-03-04T13:37:20.880Z,962.82
2023-03-04T13:38:20.966Z,962.83
2023-03-04T13:39:20.801Z,962.85
2023-03-04T13:40:20.762Z,962.81
2023-03-04T13:41:20.751Z,962.75
2023-03-04T13:43:20.825Z,962.74
2023-03-04T13:45:22.414Z,962.68
2023-03-04T13:46:20.947Z,962.6
2023-03-04T13:47:20.805Z,962.57
2023-03-04T13:48:20.780Z,962.56
2023-03-04T13:51:29.154Z,962.58
2023-03-04T13:52:20.914Z,962.56
2023-03-04T13:53:20.791Z,962.59
2023-03-04T13:54:20.839Z,962.62
2023-03-04T13:55:20.798Z,962.58
2023-03-04T13:56:20.941Z,962.57
2023-03-04T13:57:20.858Z,962.54
2023-03-04T13:58:20.809Z,962.49
2023-03-04T13:59:20.865Z,962.5
2023-03-04T14:00:20.807Z,962.51
2023-03-04T14:01:20.875Z,962.5
2023-03-04T14:03:34.405Z,962.52
2023-03-04T14:04:34.484Z,962.46
2023-03-04T14:07:34.422Z,962.48
2023-03-04T14:08:34.383Z,962.41
2023-03-04T14:09:34.418Z,962.43
2023-03-04T14:10:34.474Z,962.45
2023-03-04T14:11:34.385Z,962.41
2023-03-04T14:12:34.356Z,962.38
2023-03-04T14:13:34.474Z,962.37
2023-03-04T14:14:36.653Z,962.4
2023-03-04T14:15:34.429Z,962.35
2023-03-04T14:16:34.410Z,962.36
2023-03-04T14:18:34.506Z,962.25
2023-03-04T14:19:34.424Z,962.28
2023-03-04T14:20:34.400Z,962.33
2023-03-04T14:21:34.390Z,962.29
2023-03-04T14:22:34.411Z,962.3
2023-03-04T14:23:34.470Z,962.31
2023-03-04T14:24:34.436Z,962.29
2023-03-04T14:25:36.207Z,962.3
2023-03-04T14:26:34.498Z,962.26
2023-03-04T14:27:34.437Z,962.28
2023-03-04T14:28:34.491Z,962.25
2023-03-04T14:30:42.502Z,962.24
2023-03-04T14:31:34.642Z,962.23
2023-03-04T14:33:34.806Z,962.19
2023-03-04T14:36:34.554Z,962.18
2023-03-04T14:37:34.570Z,962.11
2023-03-04T14:39:34.503Z,962.12
2023-03-04T14:40:34.516Z,962.09
2023-03-04T14:41:34.526Z,962.16
2023-03-04T14:42:34.485Z,962.11
2023-03-04T14:43:34.469Z,962.13
2023-03-04T14:44:34.544Z,962.14
2023-03-04T14:45:34.489Z,962.15
2023-03-04T14:46:34.633Z,962.1
2023-03-04T14:47:34.562Z,962.13
2023-03-04T14:48:34.469Z,962.07
2023-03-04T14:49:34.548Z,962.06
2023-03-04T14:50:36.756Z,962.07
2023-03-04T14:51:34.485Z,962.04
2023-03-04T14:52:34.493Z,962.09
2023-03-04T14:53:34.545Z,962.1
2023-03-04T14:55:34.568Z,962.09
2023-03-04T14:56:34.583Z,962.1
2023-03-04T14:57:34.537Z,962.11
2023-03-04T14:58:34.623Z,962.06
2023-03-04T14:59:34.562Z,962.07
2023-03-04T15:00:34.709Z,962.05
2023-03-04T15:01:34.586Z,962.02
2023-03-04T15:02:34.591Z,962.04
2023-03-04T15:03:34.554Z,962
2023-03-04T15:04:34.560Z,962.03
2023-03-04T15:05:34.597Z,961.98
2023-03-04T15:08:34.563Z,961.94
2023-03-04T15:09:34.636Z,961.99